sensor_id;sensor_type;location;lat;lon;timestamp;temperature;humidity
53776;DHT22;44276;49.534;6.378;2022-12-10T00:02:05;0.80;99.90
53776;DHT22;44276;49.534;6.378;2022-12-10T00:04:35;0.90;99.90
53776;DHT22;44276;49.534;6.378;2022-12-10T00:07:03;0.90;99.90
53776;DHT22;44276;49.534;6.378;2022-12-10T00:09:31;1.00;99.90
53776;DHT22;44276;49.534;6.378;2022-12-10T00:12:00;1.00;99.90
53776;DHT22;44276;49.534;6.378;2022-12-10T00:14:28;1.00;99.90
53776;DHT22;44276;49.534;6.378;2022-12-10T00:16:56;1.00;99.90
53776;DHT22;44276;49.534;6.378;2022-12-10T00:19:24;0.90;99.90
53776;DHT22;44276;49.534;6.378;2022-12-10T00:21:54;1.00;99.90
53776;DHT22;44276;49.534;6.378;2022-12-10T00:24:22;1.00;99.90
53776;DHT22;44276;49.534;6.378;2022-12-10T00:26:50;1.00;99.90
53776;DHT22;44276;49.534;6.378;2022-12-10T00:29:18;1.10;99.90
53776;DHT22;44276;49.534;6.378;2022-12-10T00:31:46;1.10;99.90
53776;DHT22;44276;49.534;6.378;2022-12-10T00:34:14;1.10;99.90
53776;DHT22;44276;49.534;6.378;2022-12-10T00:36:44;1.10;99.90
53776;DHT22;44276;49.534;6.378;2022-12-10T00:39:15;1.10;99.90
53776;DHT22;44276;49.534;6.378;2022-12-10T00:41:45;1.10;99.90
53776;DHT22;44276;49.534;6.378;2022-12-10T00:44:14;1.10;99.90
53776;DHT22;44276;49.534;6.378;2022-12-10T00:46:43;1.10;99.90
53776;DHT22;44276;49.534;6.378;2022-12-10T00:49:11;1.10;99.90
53776;DHT22;44276;49.534;6.378;2022-12-10T00:51:39;1.10;99.90
53776;DHT22;44276;49.534;6.378;2022-12-10T00:54:08;1.10;99.90
53776;DHT22;44276;49.534;6.378;2022-12-10T00:56:41;1.10;99.90
53776;DHT22;44276;49.534;6.378;2022-12-10T00:59:09;1.10;99.90
53776;DHT22;44276;49.534;6.378;2022-12-10T01:01:38;1.10;99.90
53776;DHT22;44276;49.534;6.378;2022-12-10T01:04:09;1.20;99.90
53776;DHT22;44276;49.534;6.378;2022-12-10T01:06:40;1.20;99.90
53776;DHT22;44276;49.534;6.378;2022-12-10T01:09:11;1.20;99.90
53776;DHT22;44276;49.534;6.378;2022-12-10T01:11:42;1.20;99.90
53776;DHT22;44276;49.534;6.378;2022-12-10T01:14:12;1.20;99.90
53776;DHT22;44276;49.534;6.378;2022-12-10T01:16:43;1.20;99.90
53776;DHT22;44276;49.534;6.378;2022-12-10T01:19:12;1.20;99.90
53776;DHT22;44276;49.534;6.378;2022-12-10T01:21:40;1.20;99.90
53776;DHT22;44276;49.534;6.378;2022-12-10T01:24:08;1.30;99.90
53776;DHT22;44276;49.534;6.378;2022-12-10T01:26:36;1.20;99.90
53776;DHT22;44276;49.534;6.378;2022-12-10T01:29:06;1.20;99.90
53776;DHT22;44276;49.534;6.378;2022-12-10T01:31:34;1.10;99.90
53776;DHT22;44276;49.534;6.378;2022-12-10T01:34:05;1.00;99.90
53776;DHT22;44276;49.534;6.378;2022-12-10T01:36:37;1.00;99.90
53776;DHT22;44276;49.534;6.378;2022-12-10T01:39:08;1.00;99.90
53776;DHT22;44276;49.534;6.378;2022-12-10T01:41:38;1.00;99.90
53776;DHT22;44276;49.534;6.378;2022-12-10T01:47:11;1.00;99.90
53776;DHT22;44276;49.534;6.378;2022-12-10T01:49:39;1.10;99.90
53776;DHT22;44276;49.534;6.378;2022-12-10T01:52:09;1.00;99.90
53776;DHT22;44276;49.534;6.378;2022-12-10T01:54:40;1.00;99.90
53776;DHT22;44276;49.534;6.378;2022-12-10T01:57:11;1.00;99.90
53776;DHT22;44276;49.534;6.378;2022-12-10T01:59:41;1.00;99.90
53776;DHT22;44276;49.534;6.378;2022-12-10T02:02:16;1.00;99.90
53776;DHT22;44276;49.534;6.378;2022-12-10T02:05:04;1.00;99.90
53776;DHT22;44276;49.534;6.378;2022-12-10T02:07:45;0.90;99.90
53776;DHT22;44276;49.534;6.378;2022-12-10T02:10:32;0.80;99.90
53776;DHT22;44276;49.534;6.378;2022-12-10T02:13:10;0.80;99.90
53776;DHT22;44276;49.534;6.378;2022-12-10T02:15:44;0.70;99.90
53776;DHT22;44276;49.534;6.378;2022-12-10T02:18:18;0.70;99.90
53776;DHT22;44276;49.534;6.378;2022-12-10T02:20:49;0.70;99.90
53776;DHT22;44276;49.534;6.378;2022-12-10T02:23:21;0.70;99.90
53776;DHT22;44276;49.534;6.378;2022-12-10T02:25:53;0.70;99.90
53776;DHT22;44276;49.534;6.378;2022-12-10T02:28:31;0.80;99.90
53776;DHT22;44276;49.534;6.378;2022-12-10T02:31:09;0.80;99.90
53776;DHT22;44276;49.534;6.378;2022-12-10T02:33:42;0.90;99.90
53776;DHT22;44276;49.534;6.378;2022-12-10T02:36:15;0.80;99.90
53776;DHT22;44276;49.534;6.378;2022-12-10T02:38:46;0.80;99.90
53776;DHT22;44276;49.534;6.378;2022-12-10T02:41:18;0.90;99.90
53776;DHT22;44276;49.534;6.378;2022-12-10T02:43:51;0.90;99.90
53776;DHT22;44276;49.534;6.378;2022-12-10T02:46:23;0.90;99.90
53776;DHT22;44276;49.534;6.378;2022-12-10T02:48:54;0.90;99.90
53776;DHT22;44276;49.534;6.378;2022-12-10T02:51:24;0.90;99.90
53776;DHT22;44276;49.534;6.378;2022-12-10T02:53:58;0.90;99.90
53776;DHT22;44276;49.534;6.378;2022-12-10T02:56:29;0.90;99.90
53776;DHT22;44276;49.534;6.378;2022-12-10T02:59:06;0.90;99.90
53776;DHT22;44276;49.534;6.378;2022-12-10T03:01:46;0.90;99.90
53776;DHT22;44276;49.534;6.378;2022-12-10T03:04:23;0.90;99.90
53776;DHT22;44276;49.534;6.378;2022-12-10T03:06:57;0.90;99.90
53776;DHT22;44276;49.534;6.378;2022-12-10T03:09:32;0.90;99.90
53776;DHT22;44276;49.534;6.378;2022-12-10T03:12:06;0.90;99.90
53776;DHT22;44276;49.534;6.378;2022-12-10T03:14:40;0.90;99.90
53776;DHT22;44276;49.534;6.378;2022-12-10T03:17:11;0.90;99.90
53776;DHT22;44276;49.534;6.378;2022-12-10T03:19:42;0.90;99.90
53776;DHT22;44276;49.534;6.378;2022-12-10T03:22:14;0.90;99.90
53776;DHT22;44276;49.534;6.378;2022-12-10T03:24:45;0.90;99.90
53776;DHT22;44276;49.534;6.378;2022-12-10T03:27:15;0.80;99.90
53776;DHT22;44276;49.534;6.378;2022-12-10T03:29:47;0.90;99.90
53776;DHT22;44276;49.534;6.378;2022-12-10T03:32:19;0.90;99.90
53776;DHT22;44276;49.534;6.378;2022-12-10T03:34:51;0.90;99.90
53776;DHT22;44276;49.534;6.378;2022-12-10T03:37:21;0.80;99.90
53776;DHT22;44276;49.534;6.378;2022-12-10T03:39:50;0.80;99.90
53776;DHT22;44276;49.534;6.378;2022-12-10T03:42:19;0.80;99.90
53776;DHT22;44276;49.534;6.378;2022-12-10T03:44:48;0.90;99.90
53776;DHT22;44276;49.534;6.378;2022-12-10T03:47:19;0.90;99.90
53776;DHT22;44276;49.534;6.378;2022-12-10T03:49:48;0.90;99.90
53776;DHT22;44276;49.534;6.378;2022-12-10T03:52:16;0.90;99.90
53776;DHT22;44276;49.534;6.378;2022-12-10T03:54:44;0.90;99.90
53776;DHT22;44276;49.534;6.378;2022-12-10T03:57:12;0.90;99.90
53776;DHT22;44276;49.534;6.378;2022-12-10T03:59:40;0.90;99.90
53776;DHT22;44276;49.534;6.378;2022-12-10T04:02:09;0.90;99.90
53776;DHT22;44276;49.534;6.378;2022-12-10T04:04:39;0.90;99.90
53776;DHT22;44276;49.534;6.378;2022-12-10T04:07:07;0.90;99.90
53776;DHT22;44276;49.534;6.378;2022-12-10T04:09:35;0.90;99.90
53776;DHT22;44276;49.534;6.378;2022-12-10T04:12:03;0.80;99.90
53776;DHT22;44276;49.534;6.378;2022-12-10T04:14:32;0.80;99.90
53776;DHT22;44276;49.534;6.378;2022-12-10T04:17:17;0.80;99.90
53776;DHT22;44276;49.534;6.378;2022-12-10T04:19:47;0.90;99.90
53776;DHT22;44276;49.534;6.378;2022-12-10T04:22:15;0.90;99.90
53776;DHT22;44276;49.534;6.378;2022-12-10T04:25:01;1.00;99.90
53776;DHT22;44276;49.534;6.378;2022-12-10T04:27:48;1.00;99.90
53776;DHT22;44276;49.534;6.378;2022-12-10T04:30:16;1.00;99.90
53776;DHT22;44276;49.534;6.378;2022-12-10T04:32:44;0.90;99.90
53776;DHT22;44276;49.534;6.378;2022-12-10T04:35:14;0.90;99.90
53776;DHT22;44276;49.534;6.378;2022-12-10T04:37:42;0.90;99.90
53776;DHT22;44276;49.534;6.378;2022-12-10T04:40:10;0.90;99.90
53776;DHT22;44276;49.534;6.378;2022-12-10T04:42:39;0.90;99.90
53776;DHT22;44276;49.534;6.378;2022-12-10T04:45:07;0.90;99.90
53776;DHT22;44276;49.534;6.378;2022-12-10T04:47:36;0.90;99.90
53776;DHT22;44276;49.534;6.378;2022-12-10T04:50:05;0.90;99.90
53776;DHT22;44276;49.534;6.378;2022-12-10T04:52:36;0.90;99.90
53776;DHT22;44276;49.534;6.378;2022-12-10T04:55:04;1.00;99.90
53776;DHT22;44276;49.534;6.378;2022-12-10T04:57:33;1.00;99.90
53776;DHT22;44276;49.534;6.378;2022-12-10T05:00:01;0.90;99.90
53776;DHT22;44276;49.534;6.378;2022-12-10T05:02:30;0.90;99.90
53776;DHT22;44276;49.534;6.378;2022-12-10T05:04:58;0.90;99.90
53776;DHT22;44276;49.534;6.378;2022-12-10T05:07:26;0.90;99.90
53776;DHT22;44276;49.534;6.378;2022-12-10T05:09:56;0.90;99.90
53776;DHT22;44276;49.534;6.378;2022-12-10T05:12:24;0.90;99.90
53776;DHT22;44276;49.534;6.378;2022-12-10T05:14:52;0.90;99.90
53776;DHT22;44276;49.534;6.378;2022-12-10T05:17:20;0.90;99.90
53776;DHT22;44276;49.534;6.378;2022-12-10T05:19:48;0.90;99.90
53776;DHT22;44276;49.534;6.378;2022-12-10T05:22:16;0.90;99.90
53776;DHT22;44276;49.534;6.378;2022-12-10T05:25:08;0.90;99.90
53776;DHT22;44276;49.534;6.378;2022-12-10T05:27:37;0.90;99.90
53776;DHT22;44276;49.534;6.378;2022-12-10T05:30:05;0.90;99.90
53776;DHT22;44276;49.534;6.378;2022-12-10T05:32:35;0.90;99.90
53776;DHT22;44276;49.534;6.378;2022-12-10T05:35:04;0.80;99.90
53776;DHT22;44276;49.534;6.378;2022-12-10T05:37:33;0.80;99.90
53776;DHT22;44276;49.534;6.378;2022-12-10T05:40:01;0.80;99.90
53776;DHT22;44276;49.534;6.378;2022-12-10T05:42:30;0.90;99.90
53776;DHT22;44276;49.534;6.378;2022-12-10T05:44:58;0.90;99.90
53776;DHT22;44276;49.534;6.378;2022-12-10T05:47:26;0.90;99.90
53776;DHT22;44276;49.534;6.378;2022-12-10T05:49:54;0.90;99.90
53776;DHT22;44276;49.534;6.378;2022-12-10T05:52:22;0.80;99.90
53776;DHT22;44276;49.534;6.378;2022-12-10T05:54:50;0.80;99.90
53776;DHT22;44276;49.534;6.378;2022-12-10T05:57:18;0.80;99.90
53776;DHT22;44276;49.534;6.378;2022-12-10T05:59:48;0.80;99.90
53776;DHT22;44276;49.534;6.378;2022-12-10T06:02:18;0.80;99.90
53776;DHT22;44276;49.534;6.378;2022-12-10T06:04:46;0.80;99.90
53776;DHT22;44276;49.534;6.378;2022-12-10T06:07:14;0.70;99.90
53776;DHT22;44276;49.534;6.378;2022-12-10T06:09:42;0.70;99.90
53776;DHT22;44276;49.534;6.378;2022-12-10T06:12:10;0.70;99.90
53776;DHT22;44276;49.534;6.378;2022-12-10T06:14:38;0.60;99.90
53776;DHT22;44276;49.534;6.378;2022-12-10T06:17:07;0.70;99.90
53776;DHT22;44276;49.534;6.378;2022-12-10T06:19:35;0.60;99.90
53776;DHT22;44276;49.534;6.378;2022-12-10T06:22:03;0.60;99.90
53776;DHT22;44276;49.534;6.378;2022-12-10T06:24:31;0.60;99.90
53776;DHT22;44276;49.534;6.378;2022-12-10T06:26:59;0.60;99.90
53776;DHT22;44276;49.534;6.378;2022-12-10T06:29:28;0.60;99.90
53776;DHT22;44276;49.534;6.378;2022-12-10T06:31:56;0.60;99.90
53776;DHT22;44276;49.534;6.378;2022-12-10T06:34:26;0.60;99.90
53776;DHT22;44276;49.534;6.378;2022-12-10T06:36:54;0.60;99.90
53776;DHT22;44276;49.534;6.378;2022-12-10T06:39:22;0.60;99.90
53776;DHT22;44276;49.534;6.378;2022-12-10T06:41:50;0.60;99.90
53776;DHT22;44276;49.534;6.378;2022-12-10T06:44:24;0.60;99.90
53776;DHT22;44276;49.534;6.378;2022-12-10T06:46:52;0.50;99.90
53776;DHT22;44276;49.534;6.378;2022-12-10T06:49:20;0.50;99.90
53776;DHT22;44276;49.534;6.378;2022-12-10T06:51:50;0.50;99.90
53776;DHT22;44276;49.534;6.378;2022-12-10T06:54:18;0.50;99.90
53776;DHT22;44276;49.534;6.378;2022-12-10T06:56:46;0.40;99.90
53776;DHT22;44276;49.534;6.378;2022-12-10T06:59:14;0.40;99.90
53776;DHT22;44276;49.534;6.378;2022-12-10T07:01:42;0.30;99.90
53776;DHT22;44276;49.534;6.378;2022-12-10T07:04:10;0.30;99.90
53776;DHT22;44276;49.534;6.378;2022-12-10T07:06:38;0.30;99.90
53776;DHT22;44276;49.534;6.378;2022-12-10T07:09:08;0.20;99.90
53776;DHT22;44276;49.534;6.378;2022-12-10T07:11:36;0.10;99.90
53776;DHT22;44276;49.534;6.378;2022-12-10T07:14:05;0.10;99.90
53776;DHT22;44276;49.534;6.378;2022-12-10T07:16:33;0.00;99.90
53776;DHT22;44276;49.534;6.378;2022-12-10T07:19:01;0.00;99.90
53776;DHT22;44276;49.534;6.378;2022-12-10T07:21:30;0.00;99.90
53776;DHT22;44276;49.534;6.378;2022-12-10T07:24:00;0.00;99.90
53776;DHT22;44276;49.534;6.378;2022-12-10T07:26:32;0.00;99.90
53776;DHT22;44276;49.534;6.378;2022-12-10T07:29:03;0.00;99.90
53776;DHT22;44276;49.534;6.378;2022-12-10T07:31:32;0.00;99.90
53776;DHT22;44276;49.534;6.378;2022-12-10T07:34:01;0.00;99.90
53776;DHT22;44276;49.534;6.378;2022-12-10T07:36:29;0.00;99.90
53776;DHT22;44276;49.534;6.378;2022-12-10T07:38:57;0.00;99.90
53776;DHT22;44276;49.534;6.378;2022-12-10T07:41:25;0.00;99.90
53776;DHT22;44276;49.534;6.378;2022-12-10T07:43:54;0.10;99.90
53776;DHT22;44276;49.534;6.378;2022-12-10T07:46:23;0.10;99.90
53776;DHT22;44276;49.534;6.378;2022-12-10T07:48:53;0.10;99.90
53776;DHT22;44276;49.534;6.378;2022-12-10T07:51:22;0.20;99.90
53776;DHT22;44276;49.534;6.378;2022-12-10T07:53:50;0.20;99.90
53776;DHT22;44276;49.534;6.378;2022-12-10T07:56:22;0.30;99.90
53776;DHT22;44276;49.534;6.378;2022-12-10T07:58:51;0.40;99.90
53776;DHT22;44276;49.534;6.378;2022-12-10T08:01:23;0.40;99.90
53776;DHT22;44276;49.534;6.378;2022-12-10T08:03:53;0.40;99.90
53776;DHT22;44276;49.534;6.378;2022-12-10T08:06:24;0.40;99.90
53776;DHT22;44276;49.534;6.378;2022-12-10T08:08:55;0.50;99.90
53776;DHT22;44276;49.534;6.378;2022-12-10T08:11:25;0.50;99.90
53776;DHT22;44276;49.534;6.378;2022-12-10T08:13:53;0.60;99.90
53776;DHT22;44276;49.534;6.378;2022-12-10T08:16:26;0.60;99.90
53776;DHT22;44276;49.534;6.378;2022-12-10T08:18:56;0.60;99.90
53776;DHT22;44276;49.534;6.378;2022-12-10T08:21:26;0.60;99.90
53776;DHT22;44276;49.534;6.378;2022-12-10T08:23:54;0.60;99.90
53776;DHT22;44276;49.534;6.378;2022-12-10T08:26:24;0.70;99.90
53776;DHT22;44276;49.534;6.378;2022-12-10T08:28:53;0.70;99.90
53776;DHT22;44276;49.534;6.378;2022-12-10T08:31:22;0.80;99.90
53776;DHT22;44276;49.534;6.378;2022-12-10T08:33:55;0.90;99.90
53776;DHT22;44276;49.534;6.378;2022-12-10T15:04:06;2.40;35.90
53776;DHT22;44276;49.534;6.378;2022-12-10T15:06:51;2.10;38.30
53776;DHT22;44276;49.534;6.378;2022-12-10T15:09:23;2.00;39.90
53776;DHT22;44276;49.534;6.378;2022-12-10T15:11:57;1.80;41.70
53776;DHT22;44276;49.534;6.378;2022-12-10T15:14:28;1.50;43.60
53776;DHT22;44276;49.534;6.378;2022-12-10T15:16:58;1.10;47.70
53776;DHT22;44276;49.534;6.378;2022-12-10T15:19:33;0.70;54.50
53776;DHT22;44276;49.534;6.378;2022-12-10T15:22:18;0.40;60.60
53776;DHT22;44276;49.534;6.378;2022-12-10T15:24:50;0.20;65.90
53776;DHT22;44276;49.534;6.378;2022-12-10T15:27:21;-0.10;74.00
53776;DHT22;44276;49.534;6.378;2022-12-10T15:29:52;-0.30;85.30
53776;DHT22;44276;49.534;6.378;2022-12-10T15:32:23;-0.50;88.90
53776;DHT22;44276;49.534;6.378;2022-12-10T15:34:58;-0.60;95.50
53776;DHT22;44276;49.534;6.378;2022-12-10T15:37:33;-0.80;99.90
53776;DHT22;44276;49.534;6.378;2022-12-10T15:40:22;-0.90;99.90
53776;DHT22;44276;49.534;6.378;2022-12-10T15:42:56;-1.00;99.90
53776;DHT22;44276;49.534;6.378;2022-12-10T15:45:39;-1.00;99.90
53776;DHT22;44276;49.534;6.378;2022-12-10T15:48:12;-1.10;99.90
53776;DHT22;44276;49.534;6.378;2022-12-10T15:50:43;-1.30;99.90
53776;DHT22;44276;49.534;6.378;2022-12-10T15:53:14;-1.60;99.90
53776;DHT22;44276;49.534;6.378;2022-12-10T15:55:49;-1.80;99.90
53776;DHT22;44276;49.534;6.378;2022-12-10T15:58:18;-2.00;99.90
53776;DHT22;44276;49.534;6.378;2022-12-10T16:00:46;-2.20;99.90
53776;DHT22;44276;49.534;6.378;2022-12-10T16:03:15;-2.20;99.90
53776;DHT22;44276;49.534;6.378;2022-12-10T16:05:47;-2.30;99.90
53776;DHT22;44276;49.534;6.378;2022-12-10T16:08:19;-2.40;99.90
53776;DHT22;44276;49.534;6.378;2022-12-10T16:10:49;-2.40;99.90
53776;DHT22;44276;49.534;6.378;2022-12-10T16:13:21;-2.60;99.90
53776;DHT22;44276;49.534;6.378;2022-12-10T16:15:54;-2.70;99.90
53776;DHT22;44276;49.534;6.378;2022-12-10T16:18:25;-2.80;99.90
53776;DHT22;44276;49.534;6.378;2022-12-10T16:21:01;-3.00;99.90
53776;DHT22;44276;49.534;6.378;2022-12-10T16:23:31;-2.90;99.90
53776;DHT22;44276;49.534;6.378;2022-12-10T16:26:12;-2.80;99.90
53776;DHT22;44276;49.534;6.378;2022-12-10T16:28:43;-2.80;99.90
53776;DHT22;44276;49.534;6.378;2022-12-10T16:31:15;-2.70;99.90
53776;DHT22;44276;49.534;6.378;2022-12-10T16:33:47;-2.80;99.90
53776;DHT22;44276;49.534;6.378;2022-12-10T16:36:20;-2.80;99.90
53776;DHT22;44276;49.534;6.378;2022-12-10T16:38:49;-2.80;99.90
53776;DHT22;44276;49.534;6.378;2022-12-10T16:41:21;-2.80;99.90
53776;DHT22;44276;49.534;6.378;2022-12-10T16:43:51;-2.70;99.90
53776;DHT22;44276;49.534;6.378;2022-12-10T16:46:21;-2.80;99.90
53776;DHT22;44276;49.534;6.378;2022-12-10T16:48:51;-2.90;99.90
53776;DHT22;44276;49.534;6.378;2022-12-10T16:51:24;-2.70;99.90
53776;DHT22;44276;49.534;6.378;2022-12-10T16:53:56;-2.80;99.90
53776;DHT22;44276;49.534;6.378;2022-12-10T16:56:24;-2.90;99.90
53776;DHT22;44276;49.534;6.378;2022-12-10T16:58:52;-2.90;99.90
53776;DHT22;44276;49.534;6.378;2022-12-10T17:01:22;-3.00;99.90
53776;DHT22;44276;49.534;6.378;2022-12-10T17:03:54;-3.00;99.90
53776;DHT22;44276;49.534;6.378;2022-12-10T17:06:25;-2.90;99.90
53776;DHT22;44276;49.534;6.378;2022-12-10T17:08:53;-2.90;99.90
53776;DHT22;44276;49.534;6.378;2022-12-10T17:11:25;-2.70;99.90
53776;DHT22;44276;49.534;6.378;2022-12-10T17:14:21;-2.70;99.90
53776;DHT22;44276;49.534;6.378;2022-12-10T17:16:53;-2.70;99.90
53776;DHT22;44276;49.534;6.378;2022-12-10T17:19:25;-2.70;99.90
53776;DHT22;44276;49.534;6.378;2022-12-10T17:21:56;-2.80;99.90
53776;DHT22;44276;49.534;6.378;2022-12-10T17:24:24;-2.80;99.90
53776;DHT22;44276;49.534;6.378;2022-12-10T17:26:54;-2.70;99.90
53776;DHT22;44276;49.534;6.378;2022-12-10T17:29:28;-2.80;99.90
53776;DHT22;44276;49.534;6.378;2022-12-10T17:31:59;-2.80;99.90
53776;DHT22;44276;49.534;6.378;2022-12-10T17:34:51;-2.90;99.90
53776;DHT22;44276;49.534;6.378;2022-12-10T17:37:22;-2.90;99.90
53776;DHT22;44276;49.534;6.378;2022-12-10T17:39:50;-3.00;99.90
53776;DHT22;44276;49.534;6.378;2022-12-10T17:42:20;-3.10;99.90
53776;DHT22;44276;49.534;6.378;2022-12-10T17:44:48;-3.10;99.90
53776;DHT22;44276;49.534;6.378;2022-12-10T17:47:20;-3.00;99.90
53776;DHT22;44276;49.534;6.378;2022-12-10T17:49:51;-3.00;99.90
53776;DHT22;44276;49.534;6.378;2022-12-10T17:52:20;-3.10;99.90
53776;DHT22;44276;49.534;6.378;2022-12-10T17:54:49;-3.10;99.90
53776;DHT22;44276;49.534;6.378;2022-12-10T17:57:21;-3.20;99.90
53776;DHT22;44276;49.534;6.378;2022-12-10T17:59:52;-3.10;99.90
53776;DHT22;44276;49.534;6.378;2022-12-10T18:02:20;-3.30;99.90
53776;DHT22;44276;49.534;6.378;2022-12-10T18:04:49;-3.40;99.90
53776;DHT22;44276;49.534;6.378;2022-12-10T18:07:19;-3.30;99.90
53776;DHT22;44276;49.534;6.378;2022-12-10T18:09:48;-3.20;99.90
53776;DHT22;44276;49.534;6.378;2022-12-10T18:12:16;-3.10;99.90
53776;DHT22;44276;49.534;6.378;2022-12-10T18:14:45;-3.10;99.90
53776;DHT22;44276;49.534;6.378;2022-12-10T18:17:14;-3.20;99.90
53776;DHT22;44276;49.534;6.378;2022-12-10T18:19:43;-3.10;99.90
53776;DHT22;44276;49.534;6.378;2022-12-10T18:22:19;-3.30;99.90
53776;DHT22;44276;49.534;6.378;2022-12-10T18:24:48;-3.40;99.90
53776;DHT22;44276;49.534;6.378;2022-12-10T18:27:18;-3.50;99.90
53776;DHT22;44276;49.534;6.378;2022-12-10T18:29:46;-3.80;99.90
53776;DHT22;44276;49.534;6.378;2022-12-10T18:32:15;-3.90;99.90
53776;DHT22;44276;49.534;6.378;2022-12-10T18:34:43;-4.00;99.90
53776;DHT22;44276;49.534;6.378;2022-12-10T18:37:11;-4.10;99.90
53776;DHT22;44276;49.534;6.378;2022-12-10T18:39:39;-4.00;99.90
53776;DHT22;44276;49.534;6.378;2022-12-10T18:42:09;-3.90;99.90
53776;DHT22;44276;49.534;6.378;2022-12-10T18:44:39;-3.70;99.90
53776;DHT22;44276;49.534;6.378;2022-12-10T18:47:09;-3.70;99.90
53776;DHT22;44276;49.534;6.378;2022-12-10T18:49:38;-3.70;99.90
53776;DHT22;44276;49.534;6.378;2022-12-10T18:52:07;-3.60;99.90
53776;DHT22;44276;49.534;6.378;2022-12-10T18:54:35;-3.60;99.90
53776;DHT22;44276;49.534;6.378;2022-12-10T18:57:03;-3.70;99.90
53776;DHT22;44276;49.534;6.378;2022-12-10T18:59:54;-3.80;99.90
53776;DHT22;44276;49.534;6.378;2022-12-10T19:02:22;-3.90;99.90
53776;DHT22;44276;49.534;6.378;2022-12-10T19:04:51;-3.90;99.90
53776;DHT22;44276;49.534;6.378;2022-12-10T19:07:19;-3.90;99.90
53776;DHT22;44276;49.534;6.378;2022-12-10T19:09:47;-3.80;99.90
53776;DHT22;44276;49.534;6.378;2022-12-10T19:12:18;-3.90;99.90
53776;DHT22;44276;49.534;6.378;2022-12-10T19:14:46;-4.00;99.90
53776;DHT22;44276;49.534;6.378;2022-12-10T19:17:16;-4.10;99.90
53776;DHT22;44276;49.534;6.378;2022-12-10T19:19:44;-4.10;99.90
53776;DHT22;44276;49.534;6.378;2022-12-10T19:22:13;-4.10;99.90
53776;DHT22;44276;49.534;6.378;2022-12-10T19:24:41;-4.10;99.90
53776;DHT22;44276;49.534;6.378;2022-12-10T19:27:09;-4.10;99.90
53776;DHT22;44276;49.534;6.378;2022-12-10T19:29:38;-4.10;99.90
53776;DHT22;44276;49.534;6.378;2022-12-10T19:32:07;-4.20;99.90
53776;DHT22;44276;49.534;6.378;2022-12-10T19:34:37;-4.40;99.90
53776;DHT22;44276;49.534;6.378;2022-12-10T19:37:09;-4.20;99.90
53776;DHT22;44276;49.534;6.378;2022-12-10T19:39:37;-4.10;99.90
53776;DHT22;44276;49.534;6.378;2022-12-10T19:42:05;-4.00;99.90
53776;DHT22;44276;49.534;6.378;2022-12-10T19:44:34;-4.00;99.90
53776;DHT22;44276;49.534;6.378;2022-12-10T19:47:02;-4.10;99.90
53776;DHT22;44276;49.534;6.378;2022-12-10T19:49:30;-4.20;99.90
53776;DHT22;44276;49.534;6.378;2022-12-10T19:52:00;-4.30;99.90
53776;DHT22;44276;49.534;6.378;2022-12-10T19:54:29;-4.30;99.90
53776;DHT22;44276;49.534;6.378;2022-12-10T19:56:57;-4.30;99.90
53776;DHT22;44276;49.534;6.378;2022-12-10T19:59:26;-4.20;99.90
53776;DHT22;44276;49.534;6.378;2022-12-10T20:02:02;-4.20;99.90
53776;DHT22;44276;49.534;6.378;2022-12-10T20:04:30;-4.20;99.90
53776;DHT22;44276;49.534;6.378;2022-12-10T20:07:00;-4.20;99.90
53776;DHT22;44276;49.534;6.378;2022-12-10T20:09:28;-4.20;99.90
53776;DHT22;44276;49.534;6.378;2022-12-10T20:11:59;-4.20;99.90
53776;DHT22;44276;49.534;6.378;2022-12-10T20:14:28;-4.10;99.90
53776;DHT22;44276;49.534;6.378;2022-12-10T20:16:56;-4.00;99.90
53776;DHT22;44276;49.534;6.378;2022-12-10T20:19:24;-4.00;99.90
53776;DHT22;44276;49.534;6.378;2022-12-10T20:21:53;-3.90;99.90
53776;DHT22;44276;49.534;6.378;2022-12-10T20:24:23;-3.90;99.90
53776;DHT22;44276;49.534;6.378;2022-12-10T20:26:51;-3.90;99.90
53776;DHT22;44276;49.534;6.378;2022-12-10T20:29:21;-3.80;99.90
53776;DHT22;44276;49.534;6.378;2022-12-10T20:31:52;-3.80;99.90
53776;DHT22;44276;49.534;6.378;2022-12-10T20:34:22;-3.90;99.90
53776;DHT22;44276;49.534;6.378;2022-12-10T20:36:52;-3.90;99.90
53776;DHT22;44276;49.534;6.378;2022-12-10T20:39:24;-3.90;99.90
53776;DHT22;44276;49.534;6.378;2022-12-10T20:41:54;-3.80;99.90
53776;DHT22;44276;49.534;6.378;2022-12-10T20:44:26;-3.70;99.90
53776;DHT22;44276;49.534;6.378;2022-12-10T20:46:55;-3.70;99.90
53776;DHT22;44276;49.534;6.378;2022-12-10T20:49:25;-3.70;99.90
53776;DHT22;44276;49.534;6.378;2022-12-10T20:51:55;-3.80;99.90
53776;DHT22;44276;49.534;6.378;2022-12-10T20:54:24;-4.00;99.90
53776;DHT22;44276;49.534;6.378;2022-12-10T20:56:54;-4.20;99.90
53776;DHT22;44276;49.534;6.378;2022-12-10T20:59:25;-4.30;99.90
53776;DHT22;44276;49.534;6.378;2022-12-10T21:02:00;-4.20;99.90
53776;DHT22;44276;49.534;6.378;2022-12-10T21:04:29;-4.30;99.90
53776;DHT22;44276;49.534;6.378;2022-12-10T21:06:57;-4.30;99.90
53776;DHT22;44276;49.534;6.378;2022-12-10T21:09:27;-4.30;99.90
53776;DHT22;44276;49.534;6.378;2022-12-10T21:11:55;-4.10;99.90
53776;DHT22;44276;49.534;6.378;2022-12-10T21:14:24;-3.90;99.90
53776;DHT22;44276;49.534;6.378;2022-12-10T21:17:12;-3.90;99.90
53776;DHT22;44276;49.534;6.378;2022-12-10T21:19:41;-3.90;99.90
53776;DHT22;44276;49.534;6.378;2022-12-10T21:22:10;-3.70;99.90
53776;DHT22;44276;49.534;6.378;2022-12-10T21:24:41;-3.60;99.90
53776;DHT22;44276;49.534;6.378;2022-12-10T21:27:09;-3.60;99.90
53776;DHT22;44276;49.534;6.378;2022-12-10T21:29:38;-3.50;99.90
53776;DHT22;44276;49.534;6.378;2022-12-10T21:32:10;-3.40;99.90
53776;DHT22;44276;49.534;6.378;2022-12-10T21:34:40;-3.40;99.90
53776;DHT22;44276;49.534;6.378;2022-12-10T21:37:09;-3.30;99.90
53776;DHT22;44276;49.534;6.378;2022-12-10T21:39:38;-3.20;99.90
53776;DHT22;44276;49.534;6.378;2022-12-10T21:42:11;-3.20;99.90
53776;DHT22;44276;49.534;6.378;2022-12-10T21:44:58;-3.00;99.90
53776;DHT22;44276;49.534;6.378;2022-12-10T21:47:28;-2.90;99.90
53776;DHT22;44276;49.534;6.378;2022-12-10T21:49:56;-2.80;99.90
53776;DHT22;44276;49.534;6.378;2022-12-10T21:52:24;-2.70;99.90
53776;DHT22;44276;49.534;6.378;2022-12-10T21:54:52;-2.60;99.90
53776;DHT22;44276;49.534;6.378;2022-12-10T21:57:22;-2.60;99.90
53776;DHT22;44276;49.534;6.378;2022-12-10T21:59:51;-2.50;99.90
53776;DHT22;44276;49.534;6.378;2022-12-10T22:02:19;-2.40;99.90
53776;DHT22;44276;49.534;6.378;2022-12-10T22:04:47;-2.40;99.90
53776;DHT22;44276;49.534;6.378;2022-12-10T22:07:15;-2.30;99.90
53776;DHT22;44276;49.534;6.378;2022-12-10T22:09:44;-2.20;99.90
53776;DHT22;44276;49.534;6.378;2022-12-10T22:12:12;-2.10;99.90
53776;DHT22;44276;49.534;6.378;2022-12-10T22:14:44;-2.00;99.90
53776;DHT22;44276;49.534;6.378;2022-12-10T22:17:13;-1.90;99.90
53776;DHT22;44276;49.534;6.378;2022-12-10T22:19:41;-1.80;99.90
53776;DHT22;44276;49.534;6.378;2022-12-10T22:22:11;-1.70;99.90
53776;DHT22;44276;49.534;6.378;2022-12-10T22:24:39;-1.70;99.90
53776;DHT22;44276;49.534;6.378;2022-12-10T22:27:07;-1.50;99.90
53776;DHT22;44276;49.534;6.378;2022-12-10T22:29:36;-1.60;99.90
53776;DHT22;44276;49.534;6.378;2022-12-10T22:32:06;-1.60;99.90